createdAt,value
2022-08-14T00:00:19.907Z,100860.36
2022-08-14T00:05:32.053Z,100853.30
2022-08-14T00:10:52.420Z,100852.63
2022-08-14T00:16:41.693Z,100852.36
2022-08-14T00:21:58.982Z,100855.09
2022-08-14T00:27:13.777Z,100851.89
2022-08-14T00:32:51.868Z,100853.61
2022-08-14T00:38:13.811Z,100845.98
2022-08-14T00:43:24.436Z,100836.95
2022-08-14T00:48:43.544Z,100831.86
2022-08-14T00:54:21.684Z,100835.31
2022-08-14T00:59:37.248Z,100831.81
2022-08-14T01:04:53.993Z,100830.45
2022-08-14T01:10:08.236Z,100832.06
2022-08-14T01:15:31.767Z,100842.32
2022-08-14T01:21:07.337Z,100835.27
2022-08-14T01:26:39.165Z,100830.27
2022-08-14T01:31:50.370Z,100830.45
2022-08-14T01:37:08.714Z,100833.27
2022-08-14T01:42:30.972Z,100833.34
2022-08-14T01:47:39.218Z,100833.13
2022-08-14T01:52:59.073Z,100840.32
2022-08-14T01:58:18.554Z,100835.52
2022-08-14T02:03:35.873Z,100828.38
2022-08-14T02:08:53.159Z,100825.30
2022-08-14T02:14:15.314Z,100824.95
2022-08-14T02:19:43.700Z,100819.75
2022-08-14T02:24:52.043Z,100820.15
2022-08-14T02:30:02.669Z,100813.33
2022-08-14T02:35:21.822Z,100810.05
2022-08-14T02:40:36.283Z,100803.31
2022-08-14T02:45:48.870Z,100800.25
2022-08-14T02:51:13.993Z,100800.10
2022-08-14T02:56:30.819Z,100808.26
2022-08-14T03:01:59.195Z,100802.10
2022-08-14T03:07:17.152Z,100797.27
2022-08-14T03:12:31.476Z,100798.23
2022-08-14T03:17:57.511Z,100801.21
2022-08-14T03:23:16.977Z,100796.33
2022-08-14T03:28:33.348Z,100790.16
2022-08-14T03:33:51.718Z,100777.46
2022-08-14T03:39:24.134Z,100772.45
2022-08-14T03:45:25.218Z,100771.39
2022-08-14T03:50:05.851Z,100768.27
2022-08-14T03:55:17.880Z,100762.60
2022-08-14T04:00:42.996Z,100756.48
2022-08-14T04:05:52.910Z,100758.77
2022-08-14T04:11:10.116Z,100761.38
2022-08-14T04:16:20.833Z,100760.58
2022-08-14T04:21:30.915Z,100764.15
2022-08-14T04:27:00.767Z,100767.54
2022-08-14T04:32:58.417Z,100763.37
2022-08-14T04:38:36.410Z,100763.02
2022-08-14T04:43:49.559Z,100767.98
2022-08-14T04:49:18.983Z,100767.77
2022-08-14T04:54:45.876Z,100761.73
2022-08-14T04:59:55.668Z,100764.36
2022-08-14T05:05:05.368Z,100764.45
2022-08-14T05:10:16.421Z,100758.66
2022-08-14T05:15:24.350Z,100759.02
2022-08-14T05:21:54.998Z,100758.14
2022-08-14T05:26:18.742Z,100757.27
2022-08-14T05:31:40.789Z,100750.33
2022-08-14T05:37:08.443Z,100751.02
2022-08-14T05:42:29.517Z,100749.97
2022-08-14T05:47:53.110Z,100744.63
2022-08-14T05:53:12.462Z,100741.34
2022-08-14T05:58:42.696Z,100743.14
2022-08-14T06:03:51.211Z,100743.24
2022-08-14T06:09:05.138Z,100733.61
2022-08-14T06:14:21.477Z,100727.98
2022-08-14T06:19:57.552Z,100726.19
2022-08-14T06:25:09.376Z,100732.52
2022-08-14T06:30:30.425Z,100731.66
2022-08-14T06:35:52.575Z,100735.46
2022-08-14T06:40:59.890Z,100731.01
2022-08-14T06:46:20.120Z,100721.02
2022-08-14T06:51:38.641Z,100716.84
2022-08-14T06:56:54.478Z,100704.66
2022-08-14T07:02:22.204Z,100692.87
2022-08-14T07:07:39.265Z,100700.66
2022-08-14T07:13:00.851Z,100699.80
2022-08-14T07:18:14.624Z,100707.60
2022-08-14T07:23:24.144Z,100711.52
2022-08-14T07:28:43.076Z,100716.88
2022-08-14T07:33:55.004Z,100710.10
2022-08-14T07:39:13.201Z,100706.40
2022-08-14T07:44:32.886Z,100699.57
2022-08-14T07:49:46.859Z,100695.27
2022-08-14T07:55:03.535Z,100687.63
2022-08-14T08:00:31.605Z,100677.44
2022-08-14T08:05:42.665Z,100673.02
2022-08-14T08:11:01.977Z,100670.20
2022-08-14T08:16:11.888Z,100663.48
2022-08-14T08:21:19.623Z,100661.70
2022-08-14T08:26:32.238Z,100658.20
2022-08-14T08:31:52.073Z,100655.55
2022-08-14T08:37:06.554Z,100657.02
2022-08-14T08:42:14.780Z,100652.38
2022-08-14T08:47:23.937Z,100650.46
2022-08-14T08:52:32.372Z,100648.83
2022-08-14T08:57:40.063Z,100642.73
2022-08-14T09:02:57.742Z,100633.21
2022-08-14T09:08:30.616Z,100626.09
2022-08-14T09:13:41.726Z,100618.15
2022-08-14T09:18:49.630Z,100605.77
2022-08-14T09:24:28.314Z,100601.23
2022-08-14T09:29:29.714Z,100611.39
2022-08-14T09:34:59.574Z,100603.77
2022-08-14T09:40:20.939Z,100597.68
2022-08-14T09:45:39.923Z,100591.16
2022-08-14T09:50:52.726Z,100579.92
2022-08-14T09:56:04.640Z,100573.13
2022-08-14T10:01:40.459Z,100572.51
2022-08-14T10:06:51.465Z,100561.27
2022-08-14T10:12:18.666Z,100553.83
2022-08-14T10:17:33.086Z,100545.48
2022-08-14T10:23:13.056Z,100547.01
2022-08-14T10:28:39.161Z,100535.38
2022-08-14T10:34:12.599Z,100539.33
2022-08-14T10:39:26.124Z,100531.66
2022-08-14T10:44:54.202Z,100527.46
2022-08-14T10:50:04.629Z,100530.39
2022-08-14T10:55:25.461Z,100537.46
2022-08-14T11:00:37.311Z,100530.23
2022-08-14T11:05:55.933Z,100518.55
2022-08-14T11:11:28.622Z,100523.19
2022-08-14T11:16:53.900Z,100517.10
2022-08-14T11:22:15.466Z,100513.45
2022-08-14T11:28:00.049Z,100511.02
2022-08-14T11:33:09.111Z,100509.46
2022-08-14T11:38:41.014Z,100512.03
2022-08-14T11:44:17.432Z,100504.63
2022-08-14T11:49:34.103Z,100503.61
2022-08-14T11:54:43.279Z,100505.27
2022-08-14T12:00:03.081Z,100505.67
2022-08-14T12:05:12.937Z,100504.87
2022-08-14T12:10:41.039Z,100492.41
2022-08-14T12:16:11.103Z,100485.17
2022-08-14T12:21:29.553Z,100484.23
2022-08-14T12:26:43.503Z,100478.06
2022-08-14T12:32:05.030Z,100465.35
2022-08-14T12:37:13.449Z,100461.83
2022-08-14T12:42:34.178Z,100457.23
2022-08-14T12:48:21.066Z,100448.63
2022-08-14T12:53:40.099Z,100446.28
2022-08-14T12:58:57.725Z,100441.40
2022-08-14T13:04:22.890Z,100442.35
2022-08-14T13:09:36.708Z,100431.84
2022-08-14T13:14:58.152Z,100424.86
2022-08-14T13:20:23.239Z,100420.34
2022-08-14T13:25:58.980Z,100404.45
2022-08-14T13:31:23.984Z,100396.36
2022-08-14T13:36:51.576Z,100391.02
2022-08-14T13:42:15.645Z,100389.91
2022-08-14T13:47:50.398Z,100388.49
2022-08-14T13:53:05.154Z,100389.77
2022-08-14T13:58:54.953Z,100384.92
2022-08-14T14:04:25.522Z,100382.13
2022-08-14T14:09:51.084Z,100372.97
2022-08-14T14:15:04.762Z,100381.35
2022-08-14T14:20:34.614Z,100375.56
2022-08-14T14:25:56.259Z,100371.96
2022-08-14T14:31:12.909Z,100363.56
2022-08-14T14:36:26.694Z,100344.70
2022-08-14T14:41:50.621Z,100339.88
2022-08-14T14:47:04.094Z,100337.54
2022-08-14T14:52:27.247Z,100339.42
2022-08-14T14:57:38.118Z,100340.35
2022-08-14T15:02:51.619Z,100344.88
2022-08-14T15:08:05.072Z,100340.52
2022-08-14T15:13:14.180Z,100351.86
2022-08-14T15:18:37.363Z,100354.72
2022-08-14T15:23:48.901Z,100346.67
2022-08-14T15:29:02.859Z,100339.25
2022-08-14T15:34:43.999Z,100332.21
2022-08-14T15:39:41.767Z,100324.66
2022-08-14T15:44:58.356Z,100307.58
2022-08-14T15:50:12.280Z,100300.58
2022-08-14T15:55:23.078Z,100298.36
2022-08-14T16:00:49.949Z,100299.79
2022-08-14T16:05:57.919Z,100308.76
2022-08-14T16:11:09.045Z,100321.85
2022-08-14T16:16:47.379Z,100368.36
2022-08-14T16:22:01.586Z,100432.66
2022-08-14T16:27:37.858Z,100445.38
2022-08-14T16:32:56.460Z,100425.06
2022-08-14T16:38:18.993Z,100407.38
2022-08-14T16:43:28.313Z,100377.41
2022-08-14T16:48:55.061Z,100362.46
2022-08-14T16:54:33.756Z,100371.23
2022-08-14T17:00:07.266Z,100393.98
2022-08-14T17:05:43.329Z,100405.23
2022-08-14T17:11:09.842Z,100430.35
2022-08-14T17:16:28.930Z,100428.12
2022-08-14T17:21:40.954Z,100424.04
2022-08-14T17:32:56.951Z,100395.40
2022-08-14T17:38:39.433Z,100402.13
2022-08-14T17:44:13.725Z,100407.48
2022-08-14T17:49:51.951Z,100387.52
2022-08-14T17:55:02.978Z,100383.75
2022-08-14T18:00:33.037Z,100369.13
2022-08-14T18:06:06.981Z,100367.98
2022-08-14T18:11:23.911Z,100363.80
2022-08-14T18:16:56.041Z,100354.23
2022-08-14T18:22:32.915Z,100355.13
2022-08-14T18:27:42.041Z,100352.59
2022-08-14T18:33:15.597Z,100344.44
2022-08-14T18:38:55.318Z,100343.09
2022-08-14T18:45:01.439Z,100340.59
2022-08-14T18:50:26.877Z,100336.90
2022-08-14T18:55:53.798Z,100348.50
2022-08-14T19:01:30.524Z,100353.81
2022-08-14T19:06:56.663Z,100357.48
2022-08-14T19:12:53.278Z,100365.73
2022-08-14T19:18:27.910Z,100363.32
2022-08-14T19:24:28.169Z,100362.97
2022-08-14T19:30:24.398Z,100358.80
2022-08-14T19:35:59.661Z,100358.11
2022-08-14T19:41:34.035Z,100355.77
2022-08-14T19:47:00.560Z,100350.58
2022-08-14T19:52:29.732Z,100354.48
2022-08-14T19:57:52.411Z,100354.42
2022-08-14T20:03:11.759Z,100349.48
2022-08-14T20:11:02.481Z,100345.16
2022-08-14T20:14:10.177Z,100335.05
2022-08-14T20:19:21.173Z,100334.35
2022-08-14T20:24:54.036Z,100340.58
2022-08-14T20:30:34.256Z,100344.13
2022-08-14T20:35:53.745Z,100342.02
2022-08-14T20:41:05.715Z,100338.91
2022-08-14T20:46:16.991Z,100341.92
2022-08-14T20:51:37.520Z,100349.34
2022-08-14T20:56:48.641Z,100355.09
2022-08-14T21:02:50.282Z,100345.02
2022-08-14T21:08:22.522Z,100345.69
2022-08-14T21:14:19.415Z,100346.74
2022-08-14T21:19:04.019Z,100347.40
2022-08-14T21:24:38.614Z,100346.60
2022-08-14T21:29:53.640Z,100347.10
2022-08-14T21:35:06.193Z,100347.86
2022-08-14T21:40:40.263Z,100346.32
2022-08-14T21:45:53.957Z,100341.14
2022-08-14T21:51:53.210Z,100331.52
2022-08-14T21:56:40.990Z,100325.05
2022-08-14T22:02:09.406Z,100334.54
2022-08-14T22:07:38.899Z,100343.18
2022-08-14T22:13:00.268Z,100341.04
2022-08-14T22:18:20.592Z,100333.75
2022-08-14T22:23:29.109Z,100328.17
2022-08-14T22:28:44.904Z,100322.02
2022-08-14T22:34:03.296Z,100322.27
2022-08-14T22:40:17.553Z,100321.64
2022-08-14T22:44:56.453Z,100325.10
2022-08-14T22:50:30.013Z,100328.11
2022-08-14T22:55:52.504Z,100337.01
2022-08-14T23:01:11.813Z,100335.45
2022-08-14T23:07:02.903Z,100330.33
2022-08-14T23:12:02.306Z,100328.27
2022-08-14T23:17:12.699Z,100326.83
2022-08-14T23:22:43.159Z,100317.38
2022-08-14T23:28:02.604Z,100314.79
2022-08-14T23:33:23.997Z,100309.69
2022-08-14T23:38:54.699Z,100309.42
2022-08-14T23:44:28.474Z,100309.50
2022-08-14T23:50:00.091Z,100311.27
2022-08-14T23:55:32.396Z,100309.08
